Wetterdaten: Woche 17.04.17 - 23.04.17 (KW16)
Datum Zeit Temp. Aussen Temp. o. S. +5cm Feuchte Auss BlattFeu 1 Luftdruck Regen Sonnenschein Regendauer Solar Windben Empfang
17.04.2017 00:00 5,9 C 6,1 C 4,8 C 82 % 5 lf 1018,6 hPa 0,0 l/m 0,00 h 0,37 h 0 W/m 8,3 km/h (2 Bft) 95,70 %
17.04.2017 01:00 6,2 C 5,4 C 4,0 C 83 % 15 lf 1018,3 hPa 0,6 l/m 0,00 h 0,97 h 0 W/m 3,1 km/h (1 Bft) 94,73 %
17.04.2017 02:00 6,0 C 5,0 C 3,9 C 86 % 15 lf 1017,6 hPa 0,8 l/m 0,00 h 1,00 h 0 W/m 1,0 km/h (0 Bft) 98,36 %
17.04.2017 03:00 5,6 C 5,0 C 3,9 C 90 % 15 lf 1016,7 hPa 0,8 l/m 0,00 h 0,90 h 0 W/m 4,4 km/h (1 Bft) 97,80 %
17.04.2017 04:00 5,1 C 4,5 C 3,8 C 92 % 15 lf 1015,5 hPa 0,4 l/m 0,00 h 0,60 h 0 W/m 10,3 km/h (2 Bft) 89,24 %
17.04.2017 05:00 4,7 C 4,3 C 3,3 C 94 % 15 lf 1014,9 hPa 2,6 l/m 0,00 h 1,00 h 0 W/m 13,6 km/h (3 Bft) 98,22 %
17.04.2017 06:00 3,9 C 3,6 C 2,5 C 95 % 15 lf 1014,7 hPa 2,0 l/m 0,00 h 1,00 h 5 W/m 20,7 km/h (4 Bft) 96,86 %
17.04.2017 07:00 3,5 C 3,3 C 2,2 C 95 % 15 lf 1015,0 hPa 3,4 l/m 0,00 h 1,00 h 11 W/m 15,4 km/h (3 Bft) 96,51 %
17.04.2017 08:00 3,3 C 3,7 C 2,7 C 96 % 15 lf 1015,4 hPa 0,6 l/m 0,00 h 0,97 h 87 W/m 15,2 km/h (3 Bft) 96,44 %
17.04.2017 09:00 3,8 C 5,0 C 3,9 C 96 % 15 lf 1015,8 hPa 0,0 l/m 0,10 h 0,33 h 180 W/m 15,7 km/h (3 Bft) 95,73 %
17.04.2017 10:00 5,0 C 7,2 C 5,7 C 96 % 7 lf 1016,4 hPa 0,0 l/m 0,33 h 0,00 h 259 W/m 18,1 km/h (3 Bft) 97,22 %
17.04.2017 11:00 6,3 C 8,2 C 7,0 C 92 % 0 lf 1017,0 hPa 0,0 l/m 0,07 h 0,00 h 242 W/m 20,4 km/h (4 Bft) 96,51 %
17.04.2017 12:00 8,3 C 14,4 C 10,4 C 82 % 0 lf 1017,1 hPa 0,0 l/m 0,70 h 0,00 h 488 W/m 19,6 km/h (3 Bft) 96,01 %
17.04.2017 13:00 10,0 C 16,5 C 11,1 C 68 % 0 lf 1017,2 hPa 0,0 l/m 0,50 h 0,00 h 562 W/m 22,4 km/h (4 Bft) 95,58 %
17.04.2017 14:00 11,1 C 19,7 C 14,1 C 59 % 0 lf 1017,5 hPa 0,0 l/m 1,00 h 0,00 h 839 W/m 24,8 km/h (4 Bft) 97,93 %
17.04.2017 15:00 11,1 C 16,5 C 12,8 C 61 % 4 lf 1017,5 hPa 0,0 l/m 0,63 h 0,30 h 532 W/m 23,2 km/h (4 Bft) 95,87 %
17.04.2017 16:00 11,0 C 13,7 C 11,5 C 62 % 0 lf 1017,5 hPa 0,0 l/m 0,27 h 0,13 h 264 W/m 22,1 km/h (4 Bft) 97,15 %
17.04.2017 17:00 9,5 C 11,1 C 8,7 C 65 % 0 lf 1018,0 hPa 0,0 l/m 0,17 h 0,03 h 201 W/m 24,5 km/h (4 Bft) 97,22 %
17.04.2017 18:00 9,4 C 10,3 C 8,2 C 60 % 0 lf 1018,3 hPa 0,0 l/m 0,73 h 0,00 h 227 W/m 28,9 km/h (5 Bft) 93,67 %
17.04.2017 19:00 8,5 C 8,5 C 7,0 C 65 % 0 lf 1018,8 hPa 0,0 l/m 0,20 h 0,00 h 58 W/m 26,4 km/h (4 Bft) 98,57 %
17.04.2017 20:00 7,3 C 6,7 C 4,9 C 70 % 0 lf 1019,3 hPa 0,0 l/m 0,03 h 0,03 h 14 W/m 16,6 km/h (3 Bft) 96,73 %
17.04.2017 21:00 6,2 C 5,8 C 4,1 C 73 % 0 lf 1020,1 hPa 0,0 l/m 0,00 h 0,00 h 5 W/m 20,1 km/h (4 Bft) 95,44 %
17.04.2017 22:00 5,2 C 4,9 C 3,3 C 77 % 1 lf 1020,8 hPa 0,0 l/m 0,00 h 0,10 h 0 W/m 24,1 km/h (4 Bft) 96,39 %
17.04.2017 23:00 4,5 C 4,2 C 2,9 C 82 % 1 lf 1021,1 hPa 0,0 l/m 0,00 h 0,07 h 0 W/m 17,7 km/h (3 Bft) 96,87 %
18.04.2017 00:00 3,7 C 3,0 C 1,7 C 84 % 0 lf 1021,4 hPa 0,0 l/m 0,00 h 0,00 h 5 W/m 13,6 km/h (3 Bft) 93,74 %
18.04.2017 01:00 3,1 C 2,9 C 1,8 C 87 % 0 lf 1021,6 hPa 0,0 l/m 0,00 h 0,00 h 5 W/m 8,2 km/h (2 Bft) 96,50 %
18.04.2017 02:00 2,9 C 1,9 C 0,6 C 88 % 0 lf 1021,6 hPa 0,0 l/m 0,00 h 0,00 h 5 W/m 8,4 km/h (2 Bft) 96,15 %
18.04.2017 03:00 2,0 C 0,8 C -0,5 C 89 % 1 lf 1021,5 hPa 0,0 l/m 0,00 h 0,00 h 5 W/m 7,3 km/h (2 Bft) 94,85 %
18.04.2017 04:00 1,4 C 0,7 C -0,7 C 90 % 2 lf 1021,5 hPa 0,0 l/m 0,00 h 0,00 h 5 W/m 10,0 km/h (2 Bft) 96,04 %
18.04.2017 05:00 1,1 C 0,6 C -0,9 C 91 % 2 lf 1021,8 hPa 0,0 l/m 0,00 h 0,00 h 0 W/m 9,4 km/h (2 Bft) 97,87 %
18.04.2017 06:00 0,8 C 0,2 C -1,4 C 92 % 3 lf 1022,1 hPa 0,0 l/m 0,00 h 0,00 h 11 W/m 5,7 km/h (1 Bft) 96,08 %
18.04.2017 07:00 0,6 C 1,1 C -0,7 C 92 % 3 lf 1022,7 hPa 0,0 l/m 0,87 h 0,00 h 100 W/m 5,7 km/h (1 Bft) 95,37 %
18.04.2017 08:00 2,3 C 5,5 C 2,0 C 94 % 0 lf 1023,2 hPa 0,0 l/m 1,00 h 0,00 h 282 W/m 12,8 km/h (3 Bft) 96,09 %
18.04.2017 09:00 5,6 C 16,0 C 5,5 C 88 % 0 lf 1023,8 hPa 0,0 l/m 1,00 h 0,00 h 455 W/m 16,5 km/h (3 Bft) 97,29 %
18.04.2017 10:00 7,5 C 15,2 C 10,1 C 74 % 0 lf 1024,2 hPa 0,0 l/m 0,77 h 0,00 h 523 W/m 19,2 km/h (3 Bft) 96,51 %
18.04.2017 11:00 8,4 C 15,7 C 11,7 C 66 % 0 lf 1024,7 hPa 0,0 l/m 0,70 h 0,00 h 565 W/m 20,3 km/h (4 Bft) 95,24 %
18.04.2017 12:00 9,1 C 15,0 C 10,7 C 63 % 0 lf 1025,2 hPa 0,0 l/m 0,40 h 0,00 h 485 W/m 21,3 km/h (4 Bft) 96,44 %
18.04.2017 13:00 9,7 C 14,3 C 10,3 C 57 % 0 lf 1025,3 hPa 0,0 l/m 0,50 h 0,00 h 470 W/m 23,6 km/h (4 Bft) 96,37 %
18.04.2017 14:00 9,4 C 12,8 C 10,2 C 60 % 2 lf 1025,6 hPa 0,0 l/m 0,37 h 0,17 h 397 W/m 24,0 km/h (4 Bft) 96,30 %
18.04.2017 15:00 9,3 C 13,6 C 10,2 C 65 % 1 lf 1026,0 hPa 0,0 l/m 0,43 h 0,23 h 428 W/m 23,0 km/h (4 Bft) 94,52 %
18.04.2017 16:00 9,9 C 14,8 C 10,7 C 59 % 0 lf 1026,0 hPa 0,0 l/m 0,67 h 0,00 h 466 W/m 24,0 km/h (4 Bft) 98,93 %
18.04.2017 17:00 10,3 C 12,6 C 9,8 C 56 % 0 lf 1026,3 hPa 0,0 l/m 0,53 h 0,00 h 339 W/m 27,5 km/h (4 Bft) 95,73 %
18.04.2017 18:00 9,6 C 10,7 C 8,7 C 63 % 0 lf 1027,0 hPa 0,0 l/m 0,83 h 0,03 h 283 W/m 28,0 km/h (4 Bft) 95,52 %
18.04.2017 19:00 8,6 C 8,5 C 6,8 C 66 % 0 lf 1027,7 hPa 0,0 l/m 0,23 h 0,00 h 70 W/m 21,5 km/h (4 Bft) 98,80 %
18.04.2017 20:00 7,2 C 6,9 C 5,4 C 70 % 0 lf 1028,4 hPa 0,0 l/m 0,10 h 0,00 h 15 W/m 13,9 km/h (3 Bft) 95,52 %
18.04.2017 21:00 6,4 C 6,0 C 4,5 C 72 % 0 lf 1029,2 hPa 0,0 l/m 0,00 h 0,00 h 5 W/m 11,5 km/h (2 Bft) 94,02 %
18.04.2017 22:00 5,4 C 4,6 C 3,3 C 75 % 0 lf 1030,0 hPa 0,0 l/m 0,00 h 0,00 h 4 W/m 9,0 km/h (2 Bft) 98,29 %
18.04.2017 23:00 4,7 C 4,5 C 3,2 C 78 % 0 lf 1030,4 hPa 0,0 l/m 0,00 h 0,00 h 0 W/m 12,5 km/h (3 Bft) 95,59 %
19.04.2017 00:00 4,1 C 3,9 C 2,5 C 78 % 0 lf 1030,9 hPa 0,0 l/m 0,00 h 0,00 h 0 W/m 14,1 km/h (3 Bft) 96,99 %
19.04.2017 01:00 3,6 C 3,7 C 2,4 C 76 % 0 lf 1031,2 hPa 0,0 l/m 0,00 h 0,00 h 0 W/m 13,7 km/h (3 Bft) 95,37 %
19.04.2017 02:00 3,3 C 3,3 C 2,2 C 75 % 0 lf 1031,5 hPa 0,0 l/m 0,00 h 0,00 h 0 W/m 13,6 km/h (3 Bft) 96,95 %
19.04.2017 03:00 3,0 C 3,3 C 1,7 C 76 % 0 lf 1031,7 hPa 0,0 l/m 0,00 h 0,00 h 5 W/m 15,0 km/h (3 Bft) 96,23 %
19.04.2017 04:00 2,7 C 2,6 C 1,3 C 77 % 0 lf 1032,0 hPa 0,0 l/m 0,00 h 0,00 h 0 W/m 12,4 km/h (3 Bft) 97,65 %
19.04.2017 05:00 1,6 C 1,0 C -0,1 C 80 % 0 lf 1032,3 hPa 0,0 l/m 0,00 h 0,00 h 4 W/m 12,7 km/h (3 Bft) 95,45 %
19.04.2017 06:00 0,5 C 0,2 C -0,9 C 83 % 0 lf 1032,8 hPa 0,0 l/m 0,30 h 0,00 h 14 W/m 13,5 km/h (3 Bft) 95,35 %
19.04.2017 07:00 0,3 C 0,6 C -0,7 C 85 % 0 lf 1033,3 hPa 0,0 l/m 1,00 h 0,00 h 107 W/m 11,5 km/h (2 Bft) 97,03 %
19.04.2017 08:00 1,7 C 4,1 C 1,2 C 82 % 0 lf 1034,0 hPa 0,0 l/m 1,00 h 0,00 h 290 W/m 19,2 km/h (3 Bft) 97,34 %
19.04.2017 09:00 4,4 C 12,0 C 4,3 C 70 % 0 lf 1034,4 hPa 0,0 l/m 1,00 h 0,00 h 463 W/m 24,4 km/h (4 Bft) 94,16 %
19.04.2017 10:00 6,0 C 13,1 C 9,7 C 60 % 0 lf 1034,6 hPa 0,0 l/m 1,00 h 0,00 h 608 W/m 29,7 km/h (5 Bft) 96,35 %
19.04.2017 11:00 7,5 C 15,0 C 11,9 C 56 % 0 lf 1034,9 hPa 0,0 l/m 0,90 h 0,00 h 688 W/m 29,7 km/h (5 Bft) 97,59 %
19.04.2017 12:00 8,5 C 14,7 C 11,0 C 51 % 0 lf 1035,0 hPa 0,0 l/m 0,63 h 0,00 h 580 W/m 29,0 km/h (5 Bft) 95,66 %
19.04.2017 13:00 8,5 C 15,3 C 9,7 C 50 % 0 lf 1034,9 hPa 0,0 l/m 0,80 h 0,00 h 715 W/m 26,4 km/h (4 Bft) 96,73 %
19.04.2017 14:00 8,7 C 14,0 C 12,1 C 48 % 0 lf 1034,7 hPa 0,0 l/m 0,70 h 0,00 h 644 W/m 25,2 km/h (4 Bft) 96,51 %
19.04.2017 15:00 8,7 C 11,5 C 10,4 C 48 % 0 lf 1034,6 hPa 0,0 l/m 0,27 h 0,00 h 333 W/m 23,6 km/h (4 Bft) 96,44 %
19.04.2017 16:00 8,4 C 11,4 C 9,4 C 48 % 0 lf 1034,4 hPa 0,0 l/m 0,40 h 0,00 h 306 W/m 23,4 km/h (4 Bft) 95,37 %
19.04.2017 17:00 8,3 C 10,7 C 8,3 C 47 % 0 lf 1034,1 hPa 0,0 l/m 0,40 h 0,00 h 305 W/m 19,4 km/h (3 Bft) 97,22 %
19.04.2017 18:00 7,8 C 8,6 C 7,2 C 50 % 0 lf 1034,4 hPa 0,0 l/m 0,53 h 0,00 h 176 W/m 19,5 km/h (3 Bft) 95,52 %
19.04.2017 19:00 7,2 C 7,2 C 5,8 C 52 % 0 lf 1034,6 hPa 0,0 l/m 0,00 h 0,00 h 49 W/m 15,5 km/h (3 Bft) 96,45 %
19.04.2017 20:00 6,5 C 6,2 C 4,6 C 52 % 0 lf 1034,9 hPa 0,0 l/m 0,00 h 0,00 h 13 W/m 10,8 km/h (2 Bft) 96,52 %
19.04.2017 21:00 5,8 C 4,6 C 3,3 C 56 % 0 lf 1035,4 hPa 0,0 l/m 0,00 h 0,00 h 0 W/m 4,8 km/h (1 Bft) 97,08 %
19.04.2017 22:00 4,6 C 2,3 C 0,8 C 63 % 0 lf 1035,7 hPa 0,0 l/m 0,00 h 0,00 h 4 W/m 0,7 km/h (0 Bft) 94,59 %
19.04.2017 23:00 3,4 C 2,5 C 1,6 C 70 % 0 lf 1036,0 hPa 0,0 l/m 0,00 h 0,00 h 5 W/m 2,5 km/h (1 Bft) 95,01 %
20.04.2017 00:00 3,0 C 1,7 C 0,4 C 73 % 0 lf 1036,0 hPa 0,0 l/m 0,00 h 0,00 h 0 W/m 2,7 km/h (1 Bft) 96,82 %
20.04.2017 01:00 1,9 C -0,2 C -1,6 C 76 % 0 lf 1036,1 hPa 0,0 l/m 0,00 h 0,00 h 2 W/m 0,2 km/h (0 Bft) 98,08 %
20.04.2017 02:00 0,6 C -1,4 C -2,4 C 81 % 0 lf 1035,9 hPa 0,0 l/m 0,00 h 0,00 h 0 W/m 0,2 km/h (0 Bft) 95,09 %
20.04.2017 03:00 -0,3 C -1,8 C -2,8 C 83 % 0 lf 1035,7 hPa 0,0 l/m 0,00 h 0,00 h 0 W/m 0,1 km/h (0 Bft) 96,94 %
20.04.2017 04:00 -0,9 C -2,5 C -3,3 C 85 % 1 lf 1035,7 hPa 0,0 l/m 0,00 h 0,00 h 0 W/m 0,4 km/h (0 Bft) 95,00 %
20.04.2017 05:00 -1,4 C -3,0 C -3,7 C 86 % 3 lf 1035,7 hPa 0,0 l/m 0,00 h 0,00 h 0 W/m 0,1 km/h (0 Bft) 94,31 %
20.04.2017 06:00 -1,8 C -3,1 C -3,8 C 87 % 4 lf 1035,8 hPa 0,0 l/m 0,23 h 0,00 h 15 W/m 0,1 km/h (0 Bft) 96,80 %
20.04.2017 07:00 -1,8 C -1,4 C -2,6 C 89 % 2 lf 1036,1 hPa 0,0 l/m 1,00 h 0,00 h 101 W/m 0,6 km/h (0 Bft) 97,29 %
20.04.2017 08:00 -0,6 C 3,7 C 0,2 C 92 % 0 lf 1036,5 hPa 0,0 l/m 1,00 h 0,00 h 268 W/m 3,4 km/h (1 Bft) 97,31 %
20.04.2017 09:00 4,0 C 14,6 C 5,1 C 84 % 0 lf 1036,6 hPa 0,0 l/m 1,00 h 0,00 h 421 W/m 4,1 km/h (1 Bft) 93,45 %
20.04.2017 10:00 8,1 C 18,5 C 12,2 C 58 % 0 lf 1036,6 hPa 0,0 l/m 0,97 h 0,00 h 553 W/m 6,6 km/h (2 Bft) 94,17 %
20.04.2017 11:00 9,3 C 19,8 C 13,8 C 49 % 0 lf 1036,3 hPa 0,0 l/m 1,00 h 0,00 h 666 W/m 10,1 km/h (2 Bft) 95,43 %
20.04.2017 12:00 10,0 C 19,3 C 12,5 C 48 % 0 lf 1036,0 hPa 0,0 l/m 0,93 h 0,00 h 686 W/m 13,1 km/h (3 Bft) 91,55 %
20.04.2017 13:00 10,6 C 19,5 C 11,3 C 48 % 0 lf 1035,7 hPa 0,0 l/m 1,00 h 0,00 h 761 W/m 14,0 km/h (3 Bft) 94,09 %
20.04.2017 14:00 11,6 C 20,8 C 15,1 C 46 % 0 lf 1035,2 hPa 0,0 l/m 1,00 h 0,00 h 760 W/m 13,0 km/h (3 Bft) 93,66 %
20.04.2017 15:00 12,1 C 20,1 C 16,3 C 44 % 0 lf 1034,5 hPa 0,0 l/m 1,00 h 0,00 h 688 W/m 13,1 km/h (3 Bft) 94,88 %
20.04.2017 16:00 12,7 C 20,3 C 13,8 C 42 % 0 lf 1033,7 hPa 0,0 l/m 1,00 h 0,00 h 583 W/m 12,2 km/h (2 Bft) 91,91 %
20.04.2017 17:00 12,2 C 16,9 C 11,0 C 43 % 0 lf 1033,0 hPa 0,0 l/m 1,00 h 0,00 h 431 W/m 13,2 km/h (3 Bft) 93,73 %
20.04.2017 18:00 11,7 C 12,7 C 10,2 C 44 % 0 lf 1032,7 hPa 0,0 l/m 1,00 h 0,00 h 264 W/m 10,2 km/h (2 Bft) 95,16 %
20.04.2017 19:00 11,3 C 11,4 C 8,9 C 44 % 0 lf 1032,6 hPa 0,0 l/m 1,00 h 0,00 h 102 W/m 6,9 km/h (2 Bft) 91,60 %
20.04.2017 20:00 10,4 C 8,4 C 5,1 C 48 % 0 lf 1032,5 hPa 0,0 l/m 0,43 h 0,00 h 24 W/m 2,2 km/h (1 Bft) 92,48 %
20.04.2017 21:00 8,3 C 5,8 C 2,9 C 58 % 0 lf 1032,6 hPa 0,0 l/m 0,00 h 0,00 h 0 W/m 0,1 km/h (0 Bft) 94,16 %
20.04.2017 22:00 6,3 C 4,4 C 2,2 C 65 % 0 lf 1032,6 hPa 0,0 l/m 0,00 h 0,00 h 5 W/m 0,8 km/h (0 Bft) 94,09 %
20.04.2017 23:00 4,9 C 3,1 C 1,2 C 69 % 0 lf 1032,4 hPa 0,0 l/m 0,00 h 0,00 h 5 W/m 0,0 km/h (0 Bft) 95,37 %
21.04.2017 00:00 3,7 C 2,3 C 0,6 C 73 % 0 lf 1032,1 hPa 0,0 l/m 0,00 h 0,00 h 5 W/m 0,0 km/h (0 Bft) 95,87 %
21.04.2017 01:00 3,0 C 1,9 C 0,0 C 77 % 0 lf 1031,9 hPa 0,0 l/m 0,00 h 0,00 h 3 W/m 0,0 km/h (0 Bft) 96,08 %
21.04.2017 02:00 2,2 C 1,5 C -0,6 C 82 % 0 lf 1031,4 hPa 0,0 l/m 0,00 h 0,00 h 3 W/m 0,0 km/h (0 Bft) 93,67 %
21.04.2017 03:00 1,8 C 2,0 C 0,5 C 86 % 0 lf 1031,1 hPa 0,0 l/m 0,00 h 0,00 h 5 W/m 0,8 km/h (0 Bft) 98,22 %
21.04.2017 04:00 2,2 C 3,7 C 2,8 C 88 % 0 lf 1030,7 hPa 0,0 l/m 0,00 h 0,00 h 0 W/m 3,3 km/h (1 Bft) 98,37 %
21.04.2017 05:00 3,8 C 5,4 C 4,0 C 82 % 0 lf 1030,4 hPa 0,0 l/m 0,00 h 0,00 h 0 W/m 9,4 km/h (2 Bft) 94,03 %
21.04.2017 06:00 5,3 C 6,1 C 4,7 C 73 % 0 lf 1030,0 hPa 0,0 l/m 0,00 h 0,00 h 6 W/m 9,9 km/h (2 Bft) 97,29 %
21.04.2017 07:00 6,1 C 6,8 C 5,3 C 70 % 0 lf 1030,0 hPa 0,0 l/m 0,00 h 0,00 h 23 W/m 9,9 km/h (2 Bft) 96,46 %
21.04.2017 08:00 6,8 C 7,7 C 6,5 C 67 % 0 lf 1030,0 hPa 0,0 l/m 0,00 h 0,00 h 59 W/m 13,7 km/h (3 Bft) 96,17 %
21.04.2017 09:00 7,6 C 8,5 C 7,4 C 64 % 0 lf 1029,8 hPa 0,0 l/m 0,00 h 0,03 h 71 W/m 13,9 km/h (3 Bft) 96,51 %
21.04.2017 10:00 8,2 C 9,3 C 8,1 C 65 % 0 lf 1029,9 hPa 0,0 l/m 0,00 h 0,00 h 102 W/m 12,6 km/h (3 Bft) 94,74 %
21.04.2017 11:00 10,0 C 13,7 C 12,7 C 64 % 0 lf 1029,6 hPa 0,0 l/m 0,53 h 0,00 h 427 W/m 20,9 km/h (4 Bft) 96,01 %
21.04.2017 12:00 12,0 C 13,9 C 13,2 C 63 % 0 lf 1029,2 hPa 0,0 l/m 0,00 h 0,00 h 239 W/m 18,7 km/h (3 Bft) 98,65 %
21.04.2017 13:00 12,9 C 16,5 C 16,0 C 63 % 0 lf 1028,6 hPa 0,0 l/m 0,67 h 0,00 h 441 W/m 17,1 km/h (3 Bft) 93,24 %
21.04.2017 14:00 15,4 C 19,1 C 18,3 C 63 % 0 lf 1027,8 hPa 0,0 l/m 0,77 h 0,00 h 486 W/m 19,3 km/h (3 Bft) 97,55 %
21.04.2017 15:00 14,7 C 15,4 C 14,4 C 66 % 0 lf 1027,2 hPa 0,0 l/m 0,00 h 0,00 h 123 W/m 18,5 km/h (3 Bft) 97,47 %
21.04.2017 16:00 14,1 C 14,6 C 13,2 C 70 % 0 lf 1026,6 hPa 0,0 l/m 0,00 h 0,00 h 83 W/m 20,2 km/h (4 Bft) 94,38 %
21.04.2017 17:00 14,1 C 15,5 C 14,3 C 70 % 0 lf 1026,1 hPa 0,0 l/m 0,00 h 0,00 h 156 W/m 18,1 km/h (3 Bft) 96,89 %
21.04.2017 18:00 14,1 C 14,5 C 13,1 C 69 % 0 lf 1025,9 hPa 0,0 l/m 0,00 h 0,00 h 71 W/m 18,2 km/h (3 Bft) 99,00 %
21.04.2017 19:00 13,3 C 13,2 C 11,7 C 71 % 0 lf 1025,8 hPa 0,0 l/m 0,00 h 0,00 h 27 W/m 19,6 km/h (3 Bft) 94,28 %
21.04.2017 20:00 12,5 C 12,5 C 10,8 C 73 % 0 lf 1025,7 hPa 0,0 l/m 0,00 h 0,00 h 8 W/m 17,2 km/h (3 Bft) 96,42 %
21.04.2017 21:00 11,8 C 11,7 C 10,1 C 76 % 0 lf 1025,9 hPa 0,0 l/m 0,00 h 0,00 h 5 W/m 15,0 km/h (3 Bft) 97,29 %
21.04.2017 22:00 11,3 C 11,1 C 9,5 C 78 % 0 lf 1025,9 hPa 0,0 l/m 0,00 h 0,00 h 1 W/m 12,3 km/h (3 Bft) 96,44 %
21.04.2017 23:00 11,0 C 11,0 C 9,4 C 81 % 0 lf 1025,4 hPa 0,0 l/m 0,00 h 0,00 h 0 W/m 13,3 km/h (3 Bft) 96,72 %
22.04.2017 00:00 10,7 C 10,6 C 9,1 C 83 % 0 lf 1025,1 hPa 0,0 l/m 0,00 h 0,00 h 0 W/m 12,5 km/h (3 Bft) 96,85 %
22.04.2017 01:00 10,5 C 10,4 C 8,8 C 85 % 1 lf 1024,7 hPa 0,0 l/m 0,00 h 0,13 h 0 W/m 12,9 km/h (3 Bft) 94,66 %
22.04.2017 02:00 10,3 C 10,2 C 8,8 C 87 % 1 lf 1024,0 hPa 0,0 l/m 0,00 h 0,10 h 0 W/m 13,0 km/h (3 Bft) 98,43 %
22.04.2017 03:00 10,2 C 9,8 C 8,5 C 87 % 6 lf 1023,5 hPa 0,0 l/m 0,00 h 0,43 h 0 W/m 12,6 km/h (3 Bft) 96,20 %
22.04.2017 04:00 9,9 C 9,6 C 7,8 C 89 % 15 lf 1023,0 hPa 0,0 l/m 0,00 h 0,32 h 0 W/m 13,0 km/h (3 Bft) 94,40 %
22.04.2017 05:00 7,7 C 6,8 C 5,5 C 90 % 15 lf 1023,6 hPa 0,4 l/m 0,00 h 0,80 h 0 W/m 23,3 km/h (4 Bft) 98,86 %
22.04.2017 06:00 6,0 C 5,8 C 4,4 C 93 % 15 lf 1024,2 hPa 0,4 l/m 0,00 h 0,93 h 7 W/m 14,5 km/h (3 Bft) 96,94 %
22.04.2017 07:00 5,8 C 5,9 C 4,8 C 94 % 15 lf 1024,6 hPa 0,4 l/m 0,00 h 0,70 h 24 W/m 8,1 km/h (2 Bft) 95,37 %
22.04.2017 08:00 6,3 C 6,8 C 5,8 C 95 % 15 lf 1024,8 hPa 0,0 l/m 0,00 h 0,03 h 84 W/m 9,7 km/h (2 Bft) 96,37 %
22.04.2017 09:00 7,2 C 10,7 C 7,7 C 96 % 10 lf 1024,9 hPa 0,0 l/m 0,57 h 0,00 h 266 W/m 14,9 km/h (3 Bft) 96,65 %
22.04.2017 10:00 8,9 C 14,9 C 10,6 C 86 % 0 lf 1024,9 hPa 0,0 l/m 0,53 h 0,00 h 422 W/m 20,6 km/h (4 Bft) 96,22 %
22.04.2017 11:00 9,6 C 13,1 C 11,0 C 72 % 0 lf 1025,0 hPa 0,0 l/m 0,20 h 0,00 h 306 W/m 25,4 km/h (4 Bft) 97,86 %
22.04.2017 12:00 10,1 C 14,1 C 11,7 C 67 % 0 lf 1025,1 hPa 0,0 l/m 0,60 h 0,00 h 449 W/m 26,5 km/h (4 Bft) 94,44 %
22.04.2017 13:00 11,1 C 16,1 C 12,7 C 61 % 0 lf 1024,8 hPa 0,0 l/m 0,70 h 0,00 h 558 W/m 24,0 km/h (4 Bft) 98,36 %
22.04.2017 14:00 11,1 C 13,5 C 12,2 C 61 % 0 lf 1024,4 hPa 0,0 l/m 0,30 h 0,00 h 296 W/m 25,4 km/h (4 Bft) 97,36 %
22.04.2017 15:00 10,2 C 11,7 C 10,5 C 66 % 0 lf 1024,3 hPa 0,0 l/m 0,10 h 0,00 h 206 W/m 22,9 km/h (4 Bft) 93,50 %
22.04.2017 16:00 11,2 C 14,6 C 12,6 C 63 % 0 lf 1023,6 hPa 0,0 l/m 0,37 h 0,00 h 329 W/m 24,6 km/h (4 Bft) 98,29 %
22.04.2017 17:00 10,7 C 12,0 C 10,8 C 63 % 0 lf 1023,4 hPa 0,0 l/m 0,00 h 0,00 h 164 W/m 21,7 km/h (4 Bft) 98,37 %
22.04.2017 18:00 10,0 C 10,6 C 9,2 C 62 % 0 lf 1023,4 hPa 0,0 l/m 0,23 h 0,00 h 146 W/m 24,3 km/h (4 Bft) 93,27 %
22.04.2017 19:00 9,4 C 9,9 C 8,4 C 62 % 0 lf 1023,5 hPa 0,0 l/m 0,37 h 0,00 h 81 W/m 20,1 km/h (4 Bft) 97,88 %
22.04.2017 20:00 8,6 C 8,4 C 7,0 C 64 % 0 lf 1023,7 hPa 0,0 l/m 0,00 h 0,00 h 11 W/m 21,8 km/h (4 Bft) 98,45 %
22.04.2017 21:00 7,4 C 6,4 C 5,0 C 69 % 0 lf 1024,1 hPa 0,0 l/m 0,00 h 0,00 h 5 W/m 12,4 km/h (3 Bft) 94,90 %
22.04.2017 22:00 6,2 C 4,8 C 2,9 C 73 % 0 lf 1024,4 hPa 0,0 l/m 0,00 h 0,00 h 0 W/m 7,3 km/h (2 Bft) 95,95 %
22.04.2017 23:00 5,3 C 5,1 C 3,2 C 76 % 0 lf 1024,6 hPa 0,0 l/m 0,00 h 0,00 h 0 W/m 10,4 km/h (2 Bft) 96,28 %
23.04.2017 00:00 4,9 C 4,2 C 2,4 C 78 % 0 lf 1024,6 hPa 0,0 l/m 0,00 h 0,00 h 5 W/m 10,7 km/h (2 Bft) 94,37 %
23.04.2017 01:00 4,1 C 3,1 C 1,4 C 81 % 0 lf 1024,7 hPa 0,0 l/m 0,00 h 0,00 h 4 W/m 8,0 km/h (2 Bft) 99,00 %
23.04.2017 02:00 3,3 C 2,2 C 0,7 C 84 % 0 lf 1024,6 hPa 0,0 l/m 0,00 h 0,00 h 5 W/m 7,5 km/h (2 Bft) 96,22 %
23.04.2017 03:00 2,5 C 1,6 C 0,2 C 85 % 0 lf 1024,4 hPa 0,0 l/m 0,00 h 0,00 h 5 W/m 6,0 km/h (2 Bft) 95,30 %
23.04.2017 04:00 2,5 C 2,7 C 1,6 C 89 % 0 lf 1024,3 hPa 0,0 l/m 0,00 h 0,00 h 5 W/m 6,2 km/h (2 Bft) 95,52 %
23.04.2017 05:00 2,8 C 2,5 C 1,2 C 90 % 0 lf 1024,3 hPa 0,0 l/m 0,00 h 0,00 h 5 W/m 6,2 km/h (2 Bft) 98,72 %
23.04.2017 06:00 3,0 C 3,4 C 2,2 C 91 % 0 lf 1024,3 hPa 0,0 l/m 0,00 h 0,00 h 13 W/m 9,9 km/h (2 Bft) 96,92 %
23.04.2017 07:00 3,8 C 5,3 C 3,9 C 91 % 0 lf 1024,7 hPa 0,0 l/m 0,50 h 0,00 h 89 W/m 9,5 km/h (2 Bft) 95,10 %
23.04.2017 08:00 5,3 C 9,4 C 5,2 C 88 % 0 lf 1025,1 hPa 0,0 l/m 1,00 h 0,00 h 324 W/m 15,6 km/h (3 Bft) 97,50 %
23.04.2017 09:00 7,3 C 15,5 C 7,7 C 77 % 0 lf 1025,3 hPa 0,0 l/m 0,93 h 0,00 h 457 W/m 18,5 km/h (3 Bft) 96,05 %
23.04.2017 10:00 9,2 C 19,0 C 14,2 C 66 % 0 lf 1025,3 hPa 0,0 l/m 1,00 h 0,00 h 644 W/m 18,0 km/h (3 Bft) 97,28 %
23.04.2017 11:00 10,5 C 17,2 C 13,6 C 58 % 0 lf 1025,4 hPa 0,0 l/m 0,67 h 0,00 h 565 W/m 18,6 km/h (3 Bft) 97,14 %
23.04.2017 12:00 10,1 C 14,2 C 12,5 C 60 % 0 lf 1025,3 hPa 0,0 l/m 0,47 h 0,00 h 352 W/m 18,8 km/h (3 Bft) 94,55 %
23.04.2017 13:00 10,8 C 16,3 C 13,3 C 61 % 0 lf 1025,1 hPa 0,0 l/m 0,63 h 0,00 h 518 W/m 18,7 km/h (3 Bft) 98,02 %
23.04.2017 14:00 11,4 C 14,6 C 13,4 C 59 % 0 lf 1024,7 hPa 0,0 l/m 0,33 h 0,00 h 308 W/m 18,9 km/h (3 Bft) 96,16 %
23.04.2017 15:00 10,1 C 10,2 C 9,1 C 63 % 0 lf 1024,5 hPa 0,0 l/m 0,00 h 0,10 h 83 W/m 19,8 km/h (3 Bft) 95,68 %
23.04.2017 16:00 9,6 C 14,9 C 11,5 C 68 % 0 lf 1024,2 hPa 0,0 l/m 0,63 h 0,00 h 450 W/m 17,8 km/h (3 Bft) 97,10 %
23.04.2017 17:00 10,8 C 13,1 C 10,8 C 62 % 0 lf 1023,8 hPa 0,0 l/m 0,20 h 0,00 h 215 W/m 16,6 km/h (3 Bft) 96,10 %
23.04.2017 18:00 10,3 C 11,2 C 10,2 C 63 % 0 lf 1023,5 hPa 0,0 l/m 0,00 h 0,00 h 109 W/m 15,5 km/h (3 Bft) 97,12 %
23.04.2017 19:00 9,5 C 9,6 C 8,4 C 68 % 0 lf 1023,5 hPa 0,0 l/m 0,00 h 0,00 h 48 W/m 11,5 km/h (2 Bft) 97,17 %
23.04.2017 20:00 8,9 C 8,7 C 7,5 C 71 % 0 lf 1023,4 hPa 0,0 l/m 0,00 h 0,00 h 11 W/m 6,2 km/h (2 Bft) 96,74 %
23.04.2017 21:00 8,6 C 8,2 C 7,0 C 72 % 0 lf 1023,5 hPa 0,0 l/m 0,00 h 0,00 h 0 W/m 3,6 km/h (1 Bft) 95,23 %
23.04.2017 22:00 8,2 C 7,3 C 5,9 C 73 % 0 lf 1023,2 hPa 0,0 l/m 0,00 h 0,00 h 0 W/m 0,0 km/h (0 Bft) 97,04 %
23.04.2017 23:00 7,2 C 5,5 C 3,5 C 77 % 0 lf 1022,8 hPa 0,0 l/m 0,00 h 0,00 h 0 W/m 0,0 km/h (0 Bft) 97,33 %
Min-Datum _ 20.04.17 20.04.17 20.04.17 20.04.17 17.04.17 17.04.17 - - - - 17.04.17 17.04.17
_ Min-Zeit 06:26 05:38 05:14 16:24 00:00 06:06 - - - - 01:30 04:06
Minimum _ -1,8 C -3,3 C -3,9 C 41 % 0 lf 1014,5 hPa - - - - 0,0 km/h (0 Bft) 4,76 %
Max-Datum _ 21.04.17 23.04.17 17.04.17 17.04.17 17.04.17 20.04.17 17.04.17 23.04.17 22.04.17 19.04.17 17.04.17 17.04.17
_ Max-Zeit 14:28 13:44 15:04 08:12 00:58 09:00 07:44 10:14 03:33 14:00 19:14 00:38
Maximum _ 15,7 C 23,3 C 20,6 C 96 % 15 lf 1036,7 hPa 3,4 l/m 0,07 h 0,05 h 1042 W/m 52,3 km/h
N-NW (7 Bft)
100,00 %
Durchschnitt _ 7,0 C 8,7 C 6,5 C 72 % 2 lf 1026,9 hPa #12,4 l/m #47:56 h #12:49 h 229 W/m 13,9 km/h (3 Bft) 96,11 %
© 2017 W. Hausmann